Latest Weather Observations for Melbourne Airport

IDV60801

Issued at 5:02 pm EDT Thursday 29 January 2015 (issued every 30 minutes, with the page automatically refreshed every 10 minutes)

About weather observations | Map of weather stations | Latest weather observations for VIC | Other Formats
Station Details ID: 086282 Name: MELBOURNE AIRPORT Lat: -37.67 Lon: 144.83 Height: 113.4 m
Data from the previous 72 hours. | See also: Recent months at Melbourne Airport
Date/Time
EDT
Temp
°C
App
Temp
°C
Dew
Point
Rel
Hum
%
Delta-T
°C
Wind Press
QNH
hPa
Press
MSL
hPa
Rain
since 9 am
mm
Dir
 
Spd
km/h
Gust
km/h
Spd
kts
Gust
kts
29/04:30pm 20.1 12.2 8.0 45 6.3 S 39 56 21 30 1018.1 1017.7 0.0
29/04:26pm 20.1 12.7 8.2 46 6.2 S 37 56 20 30 1018.1 1017.7 0.0
29/04:00pm 19.5 10.9 8.1 47 5.9 S 43 56 23 30 1018.4 1018.0 0.0
29/03:30pm 19.8 11.9 7.8 46 6.2 S 39 54 21 29 1018.5 1018.1 0.0
29/03:19pm 21.3 13.8 8.1 42 6.9 S 37 56 20 30 1018.6 1018.2 0.0
29/03:00pm 21.1 13.3 8.1 43 6.8 S 39 50 21 27 1018.6 1018.2 0.0
29/02:30pm 20.4 13.5 7.1 42 6.8 S 33 46 18 25 1018.8 1018.4 0.0
29/02:00pm 20.2 12.7 6.3 40 7.0 S 35 46 19 25 1019.0 1018.6 0.0
29/01:30pm 19.9 13.4 6.4 41 6.8 S 30 41 16 22 1019.2 1018.8 0.0
29/01:00pm 20.5 14.0 4.7 35 7.7 S 28 43 15 23 1019.6 1019.2 0.0
29/12:30pm 19.4 13.0 5.0 38 7.0 S 28 41 15 22 1019.9 1019.5 0.0
29/12:00pm 19.6 12.6 4.2 36 7.4 SSE 30 48 16 26 1020.1 1019.7 0.0
29/11:53am 20.1 13.1 4.1 35 7.7 SSE 30 48 16 26 1020.1 1019.7 0.0
29/11:30am 17.8 11.5 5.5 44 6.0 SSE 28 43 15 23 1020.3 1019.9 0.0
29/11:00am 19.2 12.3 4.4 37 7.1 SSE 30 39 16 21 1020.6 1020.2 0.0
29/10:30am 17.8 10.5 4.6 41 6.3 SE 32 39 17 21 1020.7 1020.3 0.0
29/10:00am 17.2 9.9 5.4 45 5.7 SE 33 41 18 22 1020.8 1020.4 0.0
29/09:30am 16.6 9.8 6.7 52 4.9 SE 32 39 17 21 1020.9 1020.5 0.0
29/07:30am 13.0 9.1 8.6 74 2.2 SSE 19 22 10 12 1020.3 1019.9 0.0
29/07:00am 10.7 8.5 8.0 83 1.3 S 9 13 5 7 1020.1 1019.7 0.0
29/06:30am 10.9 8.0 8.0 82 1.4 S 13 17 7 9 1019.9 1019.5 0.0
29/05:30am 11.3 8.4 8.0 80 1.6 SSE 13 17 7 9 1019.4 1019.0 0.0
29/05:00am 12.2 8.9 8.2 76 2.0 SSE 15 19 8 10 1019.1 1018.7 0.0
29/04:30am 11.8 8.9 8.1 78 1.8 SSE 13 15 7 8 1019.2 1018.8 0.0
29/04:00am 11.8 9.3 8.4 80 1.7 S 11 15 6 8 1019.2 1018.8 0.0
29/03:30am 12.4 8.8 8.4 76 2.0 SSE 17 20 9 11 1019.2 1018.8 0.0
29/03:00am 12.6 9.4 8.4 75 2.1 SSE 15 17 8 9 1019.4 1019.0 0.0
29/02:30am 13.4 9.8 8.4 72 2.5 SE 17 26 9 14 1019.5 1019.1 0.0
29/02:00am 14.0 9.7 8.0 67 3.0 SSE 20 26 11 14 1019.5 1019.1 0.0
29/01:00am 14.7 10.3 7.2 61 3.7 SE 20 26 11 14 1019.7 1019.3 0.0
29/12:30am 14.9 10.5 7.2 60 3.8 SE 20 30 11 16 1019.8 1019.4 0.0
 
Date/Time
EDT
Temp
°C
App
Temp
°C
Dew
Point
Rel
Hum
%
Delta-T
°C
Wind Press
QNH
hPa
Press
MSL
hPa
Rain
since 9 am
mm
Dir
 
Spd
km/h
Gust
km/h
Spd
kts
Gust
kts
28/11:30pm 16.1 9.3 7.0 54 4.5 SE 32 37 17 20 1019.6 1019.2 0.0
28/10:30pm 17.0 10.6 7.0 51 5.0 SE 30 37 16 20 1019.3 1018.9 0.0
28/10:00pm 17.8 11.0 6.8 48 5.5 SE 32 41 17 22 1019.3 1018.9 0.0
28/09:30pm 18.2 11.3 6.6 46 5.8 SE 32 41 17 22 1018.9 1018.5 0.0
28/08:30pm 19.4 11.8 5.9 41 6.7 SSE 35 48 19 26 1018.3 1017.9 0.0
28/08:00pm 19.4 13.0 9.4 52 5.3 SSE 33 46 18 25 1017.9 1017.6 0.0
28/07:30pm 20.1 12.9 9.2 49 5.8 SSE 37 50 20 27 1017.7 1017.4 0.0
28/07:00pm 20.4 11.7 8.6 46 6.2 SSE 44 56 24 30 1017.5 1017.2 0.0
28/06:39pm 20.8 12.4 8.9 46 6.3 SSE 43 61 23 33 1017.3 1017.0 0.0
28/06:30pm 21.5 11.8 8.9 44 6.7 SSE 50 61 27 33 1017.2 1016.9 0.0
28/06:09pm 22.1 13.7 8.8 42 7.1 S 43 61 23 33 1017.0 1016.7 0.0
28/05:30pm 22.7 13.9 8.1 39 7.7 S 44 54 24 29 1016.8 1016.5 0.0
28/05:18pm 22.9 14.1 8.2 39 7.8 S 44 63 24 34 1016.7 1016.4 0.0
28/05:00pm 22.9 14.0 7.7 37 8.0 SSE 44 61 24 33 1016.7 1016.4 0.0
28/04:30pm 22.6 14.0 8.0 39 7.7 S 43 63 23 34 1016.7 1016.4 0.0
28/04:02pm 23.9 16.2 7.3 34 8.7 SSE 37 56 20 30 1016.7 1016.4 0.0
28/04:00pm 23.7 16.0 7.3 35 8.6 SSE 37 54 20 29 1016.8 1016.5 0.0
28/03:34pm 23.5 16.5 7.0 34 8.6 SSE 33 54 18 29 1016.8 1016.5 0.0
28/03:30pm 23.5 15.5 5.8 32 9.0 SSE 37 48 20 26 1016.9 1016.6 0.0
28/03:00pm 24.8 17.0 5.1 28 10.0 SSE 35 52 19 28 1017.0 1016.7 0.0
28/02:30pm 23.4 16.1 5.4 31 9.1 SE 33 44 18 24 1017.1 1016.8 0.0
28/02:00pm 22.7 14.3 5.4 32 8.7 SE 39 52 21 28 1017.3 1017.0 0.0
28/01:30pm 23.2 15.3 6.2 33 8.7 SSE 37 52 20 28 1017.4 1017.1 0.0
28/01:00pm 23.0 15.2 6.7 35 8.4 SE 37 52 20 28 1017.5 1017.2 0.0
28/12:30pm 21.4 14.6 7.0 39 7.4 SE 32 43 17 23 1017.6 1017.3 0.0
28/12:00pm 21.2 14.7 8.0 42 6.9 SSE 32 43 17 23 1017.7 1017.4 0.0
28/11:30am 20.3 14.5 8.0 45 6.4 SSE 28 46 15 25 1017.9 1017.6 0.0
28/11:00am 19.9 14.9 7.9 46 6.2 ESE 24 35 13 19 1018.1 1017.7 0.0
28/10:30am 19.3 14.2 7.6 46 6.0 SE 24 35 13 19 1018.3 1017.9 0.0
28/10:00am 18.3 12.5 8.0 51 5.3 SSE 28 39 15 21 1018.3 1017.9 0.0
28/09:30am 17.9 11.7 7.9 52 5.1 SE 30 39 16 21 1018.5 1018.1 0.0
28/09:00am 17.0 10.7 7.5 53 4.8 SSE 30 48 16 26 1018.3 1017.9 0.0
28/08:53am 16.7 10.4 7.3 54 4.7 SSE 30 48 16 26 1018.3 1017.9 0.0
28/08:30am 16.6 11.1 7.4 54 4.6 SSE 26 35 14 19 1018.1 1017.7 0.0
28/08:00am 15.5 11.4 8.0 61 3.8 S 19 26 10 14 1017.8 1017.5 0.0
28/07:30am 13.6 10.8 8.4 71 2.6 S 13 20 7 11 1017.7 1017.4 0.0
28/07:18am 12.9 10.0 8.3 73 2.3 S 13 17 7 9 1017.6 1017.3 0.0
28/07:00am 11.4 8.9 8.1 80 1.6 SSW 11 13 6 7 1017.4 1017.1 0.0
28/06:57am 11.2 8.7 8.4 83 1.4 SSW 11 13 6 7 1017.4 1017.1 0.0
28/06:30am 11.7 8.9 8.5 81 1.6 S 13 15 7 8 1017.2 1016.9 0.0
28/06:00am 12.5 9.7 8.5 76 2.0 SSE 13 17 7 9 1017.1 1016.8 0.0
28/05:30am 13.5 10.7 8.5 72 2.5 SE 13 17 7 9 1016.9 1016.6 0.0
28/05:00am 13.9 10.7 8.5 70 2.7 SSE 15 19 8 10 1016.9 1016.6 0.0
28/04:30am 12.9 10.5 8.7 75 2.1 S 11 13 6 7 1016.8 1016.5 0.0
28/04:00am 13.2 10.4 8.6 73 2.3 SSE 13 17 7 9 1016.7 1016.4 0.0
28/03:30am 12.9 9.7 8.5 74 2.2 SE 15 17 8 9 1017.0 1016.7 0.0
28/03:00am 13.8 9.8 8.4 70 2.7 SE 19 24 10 13 1016.9 1016.6 0.0
28/02:30am 13.8 10.2 8.2 69 2.8 SE 17 22 9 12 1017.2 1016.9 0.0
28/02:00am 13.8 10.2 8.4 70 2.7 SSE 17 22 9 12 1017.5 1017.2 0.0
28/01:30am 13.7 9.5 8.1 69 2.8 SSE 20 28 11 15 1017.6 1017.3 0.0
28/01:00am 14.5 9.8 7.9 64 3.3 SSE 22 28 12 15 1017.8 1017.5 0.0
28/12:30am 14.7 9.3 8.1 64 3.3 SSE 26 37 14 20 1017.9 1017.6 0.0
28/12:00am 15.0 8.9 8.3 64 3.4 SSE 30 37 16 20 1018.1 1017.7 0.0
 
Date/Time
EDT
Temp
°C
App
Temp
°C
Dew
Point
Rel
Hum
%
Delta-T
°C
Wind Press
QNH
hPa
Press
MSL
hPa
Rain
since 9 am
mm
Dir
 
Spd
km/h
Gust
km/h
Spd
kts
Gust
kts
27/11:30pm 15.0 9.6 8.0 63 3.5 S 26 33 14 18 1018.2 1017.8 0.0
27/11:00pm 14.8 9.3 7.6 62 3.6 S 26 33 14 18 1018.3 1017.9 0.0
27/10:30pm 14.9 9.0 7.4 61 3.7 S 28 35 15 19 1018.2 1017.8 0.0
27/10:00pm 15.2 9.3 7.3 59 3.9 S 28 37 15 20 1018.1 1017.7 0.0
27/09:30pm 15.4 9.3 6.6 55 4.3 S 28 39 15 21 1017.8 1017.5 0.0
27/09:00pm 15.3 9.6 6.7 56 4.2 S 26 33 14 18 1017.5 1017.2 0.0
27/08:30pm 15.4 9.3 6.4 55 4.4 S 28 39 15 21 1017.5 1017.2 0.0
27/08:00pm 16.0 8.9 5.6 50 5.0 S 32 41 17 22 1017.1 1016.8 0.0
27/07:30pm 16.5 9.8 5.8 49 5.2 S 30 39 16 21 1016.9 1016.6 0.0
27/07:00pm 16.8 10.2 6.2 49 5.2 S 30 37 16 20 1016.7 1016.4 0.0
27/06:30pm 16.8 9.7 6.5 50 5.1 S 33 44 18 24 1016.5 1016.2 0.0
27/06:00pm 16.9 10.1 7.1 52 4.9 S 32 44 17 24 1016.3 1016.0 0.0
27/05:30pm 17.5 10.5 6.9 49 5.3 S 33 44 18 24 1016.2 1015.9 0.0
27/05:00pm 18.3 11.1 5.9 44 6.1 S 33 46 18 25 1016.2 1015.9 0.0
27/04:30pm 18.3 10.9 6.7 46 5.8 SSE 35 46 19 25 1016.3 1016.0 0.0
27/04:00pm 17.6 10.3 7.0 50 5.3 S 35 50 19 27 1016.4 1016.1 0.0
27/03:30pm 17.6 10.4 7.5 51 5.1 S 35 46 19 25 1016.5 1016.2 0.0
27/03:00pm 18.0 11.0 6.8 48 5.6 S 33 41 18 22 1016.5 1016.2 0.0
27/02:30pm 18.1 11.3 6.7 47 5.7 SSE 32 41 17 22 1016.5 1016.2 0.0
27/02:00pm 18.6 11.8 6.9 46 5.9 S 32 39 17 21 1016.7 1016.4 0.0
27/01:30pm 18.4 11.5 7.1 47 5.7 SSE 33 43 18 23 1016.9 1016.6 0.0
27/01:00pm 17.2 10.9 7.5 53 4.9 S 30 39 16 21 1017.0 1016.7 0.0
27/12:30pm 17.4 11.5 7.5 52 5.0 S 28 37 15 20 1017.1 1016.8 0.0
27/12:00pm 17.0 11.0 7.0 51 5.0 S 28 35 15 19 1017.2 1016.9 0.0
27/11:30am 17.6 11.5 6.5 48 5.5 SSE 28 37 15 20 1017.3 1017.0 0.0
27/11:00am 18.4 12.7 6.6 46 5.9 SE 26 33 14 18 1017.3 1017.0 0.0
27/10:30am 17.9 12.2 6.7 48 5.6 SSE 26 35 14 19 1017.3 1017.0 0.0
27/10:00am 17.2 11.0 6.2 48 5.4 SSE 28 35 15 19 1017.4 1017.1 0.0
27/09:30am 16.0 9.6 6.9 54 4.5 SE 30 35 16 19 1017.4 1017.1 0.0
27/09:00am 15.3 10.2 7.7 60 3.8 SSE 24 32 13 17 1017.5 1017.2 0.0
27/08:30am 15.1 10.1 7.9 62 3.6 SE 24 30 13 16 1017.3 1017.0 0.0
27/08:00am 13.1 10.8 7.6 69 2.7 SW 9 11 5 6 1017.1 1016.8 0.0
27/07:30am 11.3 9.0 7.4 77 1.9 WSW 9 11 5 6 1016.8 1016.5 0.0
27/07:00am 11.6 7.8 7.5 76 2.0 SSE 17 20 9 11 1016.6 1016.3 0.0
27/06:30am 12.9 8.4 7.1 68 2.8 SSE 20 28 11 15 1016.4 1016.1 0.0
27/06:00am 12.3 7.8 6.9 69 2.6 SSE 20 26 11 14 1016.3 1016.0 0.0
27/05:30am 11.6 7.6 6.8 72 2.3 SSE 17 20 9 11 1016.3 1016.0 0.0
27/05:00am 11.4 8.1 6.6 72 2.3 SSE 13 17 7 9 1016.2 1015.9 0.0
27/04:30am 11.3 8.0 6.4 72 2.3 S 13 17 7 9 1016.2 1015.9 0.0
27/04:00am 11.4 8.1 6.3 71 2.4 SSE 13 15 7 8 1016.2 1015.9 0.0
27/03:30am 12.1 8.4 6.2 67 2.8 SSE 15 19 8 10 1016.5 1016.2 0.0
27/03:00am 12.4 8.3 6.1 65 3.0 SSE 17 20 9 11 1016.5 1016.2 0.0
27/02:30am 12.1 8.4 6.2 67 2.8 SSE 15 17 8 9 1016.6 1016.3 0.0
27/02:00am 12.9 8.4 6.2 64 3.2 SSE 19 24 10 13 1016.9 1016.6 0.0
27/01:30am 13.6 8.1 6.1 60 3.6 SSE 24 32 13 17 1017.1 1016.8 0.0
27/01:00am 14.2 8.7 6.1 58 3.9 SSE 24 32 13 17 1017.2 1016.9 0.0
27/12:30am 14.3 8.9 6.2 58 3.9 SSE 24 32 13 17 1017.4 1017.1 0.0
27/12:00am 14.3 8.5 6.4 59 3.8 SSE 26 33 14 18 1017.6 1017.3 0.0
 
Date/Time
EDT
Temp
°C
App
Temp
°C
Dew
Point
Rel
Hum
%
Delta-T
°C
Wind Press
QNH
hPa
Press
MSL
hPa
Rain
since 9 am
mm
Dir
 
Spd
km/h
Gust
km/h
Spd
kts
Gust
kts
26/11:30pm 14.2 8.9 6.6 60 3.7 SSE 24 30 13 16 1017.7 1017.4 0.0
26/11:00pm 14.2 8.0 6.3 59 3.8 SSE 28 37 15 20 1017.7 1017.4 0.0
26/10:30pm 14.7 8.1 6.0 56 4.2 SE 30 39 16 21 1017.7 1017.4 0.0
26/10:00pm 14.8 8.5 5.8 55 4.3 SSE 28 33 15 18 1017.7 1017.4 0.0
26/09:30pm 14.8 9.8 4.8 51 4.7 SSE 20 28 11 15 1017.5 1017.2 0.0
26/09:00pm 15.1 9.8 4.9 50 4.8 S 22 30 12 16 1017.2 1016.9 0.0
26/08:30pm 15.7 9.2 4.9 48 5.1 SSE 28 37 15 20 1017.0 1016.7 0.0
26/08:00pm 16.4 9.6 5.1 47 5.4 S 30 37 16 20 1016.7 1016.4 0.0
26/07:30pm 17.0 9.8 4.9 44 5.8 S 32 43 17 23 1016.4 1016.1 0.0
26/07:00pm 17.7 10.5 5.1 43 6.1 S 32 41 17 22 1015.9 1015.6 0.0
26/06:30pm 17.7 10.2 4.5 41 6.3 S 33 43 18 23 1015.7 1015.4 0.0
26/06:00pm 18.1 10.6 4.5 40 6.5 S 33 48 18 26 1015.7 1015.4 0.0
26/05:30pm 18.4 11.0 5.0 41 6.5 S 33 41 18 22 1015.7 1015.4 0.0

Other Formats:

Comma delimited format used in spreadsheet applications
http://www.bom.gov.au/fwo/IDV60801/IDV60801.94866.axf

JavaScript Object Notation format (JSON) in row-major order
http://www.bom.gov.au/fwo/IDV60801/IDV60801.94866.json